Time;durP1;ratioP1;P1;durP2;ratioP2;P2;SDS_P1;SDS_P2;PMS_P1;PMS_P2;Temp;Humidity;BMP_temperature;BMP_pressure;BME280_temperature;BME280_humidity;BME280_pressure;Samples;Min_cycle;Max_cycle;Signal;HPM_P1;HPM_P2
2023/02/20 00:01:13;;;;;;;14.43;9.27;;;;;;;;;;5049869;28;20254;-67
2023/02/20 00:03:39;;;;;;;15.67;10.30;;;;;;;;;;5052989;28;20700;-66
2023/02/20 00:06:04;;;;;;;16.10;10.30;;;;;;;;;;5058556;28;20656;-66
2023/02/20 00:08:30;;;;;;;13.97;10.23;;;;;;;;;;5066410;28;20185;-66
2023/02/20 00:10:55;;;;;;;14.40;9.60;;;;;;;;;;5051866;28;20220;-66
2023/02/20 00:13:20;;;;;;;15.47;10.03;;;;;;;;;;5055525;28;20201;-66
2023/02/20 00:15:46;;;;;;;15.90;10.40;;;;;;;;;;5048412;28;20243;-66
2023/02/20 00:18:12;;;;;;;15.17;10.13;;;;;;;;;;5051997;28;20675;-66
2023/02/20 00:20:37;;;;;;;13.83;9.80;;;;;;;;;;5047524;28;20228;-66
2023/02/20 00:23:02;;;;;;;20.33;11.93;;;;;;;;;;5048791;28;20181;-66
2023/02/20 00:25:28;;;;;;;17.27;10.07;;;;;;;;;;5049274;28;20234;-67
2023/02/20 00:27:53;;;;;;;14.60;9.53;;;;;;;;;;5054386;28;20217;-66
2023/02/20 00:30:21;;;;;;;15.83;9.83;;;;;;;;;;5067943;28;20228;-66
2023/02/20 00:32:48;;;;;;;16.03;9.90;;;;;;;;;;5058616;28;20680;-66
2023/02/20 00:35:15;;;;;;;15.63;10.13;;;;;;;;;;5054874;28;20207;-66
2023/02/20 00:37:40;;;;;;;12.67;9.20;;;;;;;;;;5061592;28;20216;-66
2023/02/20 00:40:07;;;;;;;15.33;9.77;;;;;;;;;;5066623;28;20223;-66
2023/02/20 00:42:32;;;;;;;14.13;9.33;;;;;;;;;;5052333;28;20205;-66
2023/02/20 00:44:57;;;;;;;17.97;9.33;;;;;;;;;;5049936;28;20193;-66
2023/02/20 00:47:23;;;;;;;14.40;8.73;;;;;;;;;;5050558;28;20258;-66
2023/02/20 00:49:48;;;;;;;13.27;9.20;;;;;;;;;;5056937;28;20216;-66
2023/02/20 00:52:13;;;;;;;14.13;9.10;;;;;;;;;;5058850;28;20263;-66
2023/02/20 00:54:39;;;;;;;19.37;9.00;;;;;;;;;;5060132;28;20193;-66
2023/02/20 00:57:04;;;;;;;14.90;9.03;;;;;;;;;;5050316;28;20501;-66
2023/02/20 00:59:30;;;;;;;18.40;8.50;;;;;;;;;;5052882;28;20280;-66
2023/02/20 01:01:55;;;;;;;14.23;8.43;;;;;;;;;;5051384;28;20692;-66
2023/02/20 01:04:21;;;;;;;14.20;8.73;;;;;;;;;;5061953;28;20281;-66
2023/02/20 01:06:46;;;;;;;15.37;8.80;;;;;;;;;;5052549;28;20529;-67
2023/02/20 01:09:12;;;;;;;16.87;8.93;;;;;;;;;;5049343;28;20223;-66
2023/02/20 01:11:40;;;;;;;14.00;8.30;;;;;;;;;;5048692;28;20621;-66
2023/02/20 01:14:06;;;;;;;14.27;8.87;;;;;;;;;;5061153;28;20218;-66
2023/02/20 01:16:31;;;;;;;14.63;9.07;;;;;;;;;;5048147;28;20708;-66
2023/02/20 01:18:56;;;;;;;13.83;8.63;;;;;;;;;;5058882;28;20197;-67
2023/02/20 01:21:22;;;;;;;14.37;8.97;;;;;;;;;;5054262;28;20185;-67
2023/02/20 01:23:47;;;;;;;15.53;8.73;;;;;;;;;;5054558;28;20268;-66
2023/02/20 01:26:13;;;;;;;14.47;9.03;;;;;;;;;;5052590;28;20189;-67
2023/02/20 01:28:38;;;;;;;21.77;10.30;;;;;;;;;;5051076;28;20236;-66
2023/02/20 01:31:03;;;;;;;17.33;9.97;;;;;;;;;;5062262;28;20212;-66
2023/02/20 01:33:29;;;;;;;16.13;9.70;;;;;;;;;;5059093;28;20276;-66
2023/02/20 01:35:54;;;;;;;15.67;10.20;;;;;;;;;;5068634;28;20247;-67
2023/02/20 01:38:20;;;;;;;16.53;10.00;;;;;;;;;;5060500;28;20189;-66
2023/02/20 01:40:47;;;;;;;19.47;10.13;;;;;;;;;;5058451;28;20182;-66
2023/02/20 01:43:13;;;;;;;17.77;10.33;;;;;;;;;;5055435;28;20216;-66
2023/02/20 01:45:39;;;;;;;19.90;11.40;;;;;;;;;;5058620;28;20610;-66
2023/02/20 01:48:05;;;;;;;19.10;10.50;;;;;;;;;;5059387;28;20216;-66
2023/02/20 01:50:35;;;;;;;20.27;11.93;;;;;;;;;;5056497;28;20209;-66
2023/02/20 01:53:07;;;;;;;20.03;11.67;;;;;;;;;;5061439;28;20283;-66
2023/02/20 01:55:38;;;;;;;21.83;12.40;;;;;;;;;;5065777;28;20188;-66
2023/02/20 01:58:22;;;;;;;21.70;12.43;;;;;;;;;;5060773;28;20185;-66
2023/02/20 02:00:47;;;;;;;23.87;13.37;;;;;;;;;;5061911;28;20578;-66
2023/02/20 02:03:16;;;;;;;22.27;12.90;;;;;;;;;;5060753;28;20272;-66
2023/02/20 02:05:45;;;;;;;24.00;13.40;;;;;;;;;;5068330;28;20736;-66
2023/02/20 02:08:13;;;;;;;23.37;13.57;;;;;;;;;;5054255;28;20189;-66
2023/02/20 02:10:49;;;;;;;22.07;12.87;;;;;;;;;;5056666;28;20213;-66
2023/02/20 02:13:14;;;;;;;25.50;13.13;;;;;;;;;;5057097;28;20189;-66
2023/02/20 02:15:39;;;;;;;27.93;14.47;;;;;;;;;;5054065;28;20208;-66
2023/02/20 02:18:34;;;;;;;25.27;14.60;;;;;;;;;;5070146;28;20192;-66
2023/02/20 02:21:05;;;;;;;25.90;14.60;;;;;;;;;;5062023;28;20389;-66
2023/02/20 02:23:44;;;;;;;31.00;15.00;;;;;;;;;;5063914;28;20216;-66
2023/02/20 02:26:43;;;;;;;27.93;14.67;;;;;;;;;;5058956;28;20534;-66
2023/02/20 02:29:21;;;;;;;26.23;14.67;;;;;;;;;;5069491;28;20612;-66
2023/02/20 02:32:05;;;;;;;25.20;15.17;;;;;;;;;;5073084;28;20307;-66
2023/02/20 02:34:45;;;;;;;29.30;16.00;;;;;;;;;;5064970;28;20193;-66
2023/02/20 02:37:43;;;;;;;23.03;14.43;;;;;;;;;;5059999;28;20239;-66
2023/02/20 02:40:25;;;;;;;24.80;14.67;;;;;;;;;;5060541;28;20510;-66
2023/02/20 02:43:27;;;;;;;24.60;14.83;;;;;;;;;;5054089;28;20296;-66
2023/02/20 02:45:55;;;;;;;22.67;13.97;;;;;;;;;;5046316;28;20247;-66
2023/02/20 02:48:36;;;;;;;27.57;14.33;;;;;;;;;;5058924;28;20260;-66
2023/02/20 02:51:36;;;;;;;28.83;14.70;;;;;;;;;;5057332;28;20283;-66
2023/02/20 02:54:19;;;;;;;30.57;15.47;;;;;;;;;;5057660;28;20239;-66
2023/02/20 02:56:46;;;;;;;26.90;14.40;;;;;;;;;;5061033;28;20189;-66
2023/02/20 02:59:16;;;;;;;27.10;14.67;;;;;;;;;;5058077;28;20633;-66
2023/02/20 03:01:49;;;;;;;26.47;13.53;;;;;;;;;;5046428;28;20561;-66
2023/02/20 03:04:22;;;;;;;22.33;13.57;;;;;;;;;;5060982;28;20707;-66
2023/02/20 03:06:51;;;;;;;29.27;14.33;;;;;;;;;;5058493;28;20264;-66
2023/02/20 03:09:25;;;;;;;25.87;14.13;;;;;;;;;;5065803;28;20188;-66
2023/02/20 03:11:54;;;;;;;23.77;13.83;;;;;;;;;;5050855;28;20203;-66
2023/02/20 03:17:16;;;;;;;26.47;13.47;;;;;;;;;;5051267;28;20246;-66
2023/02/20 03:19:53;;;;;;;24.80;13.03;;;;;;;;;;5061828;28;20241;-66
2023/02/20 03:22:25;;;;;;;30.40;14.30;;;;;;;;;;5049766;28;20759;-66
2023/02/20 03:24:55;;;;;;;23.30;13.50;;;;;;;;;;5051264;28;20284;-66
2023/02/20 03:27:45;;;;;;;24.58;13.07;;;;;;;;;;5053269;28;20269;-66
2023/02/20 03:30:36;;;;;;;24.58;13.48;;;;;;;;;;5067786;28;20596;-66
2023/02/20 03:44:24;;;;;;;27.38;14.77;;;;;;;;;;5062103;28;20528;-66
2023/02/20 03:46:53;;;;;;;29.98;16.50;;;;;;;;;;5062332;28;20192;-66
2023/02/20 03:49:22;;;;;;;29.08;16.88;;;;;;;;;;5054717;28;20177;-66
2023/02/20 03:51:47;;;;;;;34.17;17.50;;;;;;;;;;5057610;28;20189;-66
2023/02/20 03:54:13;;;;;;;29.05;18.15;;;;;;;;;;5051237;28;20185;-66
2023/02/20 03:56:51;;;;;;;33.60;18.75;;;;;;;;;;5054035;28;20676;-66
2023/02/20 03:59:29;;;;;;;33.05;18.92;;;;;;;;;;5066556;28;20181;-66
2023/02/20 04:01:59;;;;;;;38.90;19.52;;;;;;;;;;5053538;28;20250;-66
2023/02/20 04:04:33;;;;;;;37.13;19.27;;;;;;;;;;5062055;28;20217;-66
2023/02/20 04:07:03;;;;;;;38.22;21.13;;;;;;;;;;5052218;28;20276;-66
2023/02/20 04:09:33;;;;;;;39.63;21.80;;;;;;;;;;5062498;28;20193;-66
2023/02/20 04:12:09;;;;;;;39.22;21.45;;;;;;;;;;5053542;28;20763;-66
2023/02/20 04:14:35;;;;;;;38.50;20.95;;;;;;;;;;5058771;28;20200;-66
2023/02/20 04:17:08;;;;;;;37.08;21.52;;;;;;;;;;5053206;28;20201;-66
2023/02/20 04:19:34;;;;;;;38.80;22.43;;;;;;;;;;5049224;28;20200;-67
2023/02/20 04:22:03;;;;;;;47.47;23.60;;;;;;;;;;5048482;28;20194;-66
2023/02/20 04:24:34;;;;;;;37.83;22.53;;;;;;;;;;5053510;28;20358;-66
2023/02/20 04:27:00;;;;;;;41.03;23.77;;;;;;;;;;5054775;28;20625;-66
2023/02/20 04:29:26;;;;;;;39.87;23.00;;;;;;;;;;5053677;28;20208;-66
2023/02/20 04:31:51;;;;;;;45.87;23.77;;;;;;;;;;5055705;28;20204;-66
2023/02/20 04:34:17;;;;;;;38.87;23.90;;;;;;;;;;5048267;28;20715;-66
2023/02/20 04:36:42;;;;;;;41.67;24.33;;;;;;;;;;5050753;28;20200;-66
2023/02/20 04:39:07;;;;;;;42.95;25.08;;;;;;;;;;5047399;28;20335;-66
2023/02/20 04:41:33;;;;;;;48.83;25.10;;;;;;;;;;5049194;28;20656;-66
2023/02/20 04:46:43;;;;;;;47.43;25.93;;;;;;;;;;5048528;28;20193;-66
2023/02/20 04:49:08;;;;;;;44.23;24.37;;;;;;;;;;5048527;28;20334;-66
2023/02/20 04:51:33;;;;;;;47.40;26.90;;;;;;;;;;5049054;28;20213;-67
2023/02/20 04:53:59;;;;;;;43.97;25.27;;;;;;;;;;5063690;28;20258;-66
2023/02/20 04:56:24;;;;;;;51.53;25.97;;;;;;;;;;5056637;28;20196;-66
2023/02/20 04:58:50;;;;;;;46.70;24.98;;;;;;;;;;5052022;28;20192;-66
2023/02/20 05:01:16;;;;;;;45.75;26.17;;;;;;;;;;5052479;28;20209;-66
2023/02/20 05:03:41;;;;;;;48.17;27.13;;;;;;;;;;5051151;28;20200;-67
2023/02/20 05:06:06;;;;;;;45.60;26.42;;;;;;;;;;5056806;28;20212;-67
2023/02/20 05:08:32;;;;;;;47.53;25.85;;;;;;;;;;5055462;28;20604;-66
2023/02/20 05:10:57;;;;;;;46.25;25.52;;;;;;;;;;5052588;28;20309;-66
2023/02/20 05:13:23;;;;;;;48.10;25.92;;;;;;;;;;5057370;28;20198;-66
2023/02/20 05:15:48;;;;;;;45.25;25.25;;;;;;;;;;5061322;28;20199;-66
2023/02/20 05:18:23;;;;;;;51.97;26.20;;;;;;;;;;5058320;28;20196;-66
2023/02/20 05:23:32;;;;;;;50.90;25.70;;;;;;;;;;5045839;28;20209;-66
2023/02/20 05:25:57;;;;;;;46.53;26.00;;;;;;;;;;5056167;28;20214;-66
2023/02/20 05:28:23;;;;;;;49.22;25.70;;;;;;;;;;5049830;28;20233;-66
2023/02/20 05:30:48;;;;;;;51.05;26.60;;;;;;;;;;5052183;28;20225;-66
2023/02/20 05:33:14;;;;;;;52.42;25.70;;;;;;;;;;5055282;28;20404;-66
2023/02/20 05:35:40;;;;;;;51.72;26.15;;;;;;;;;;5062310;28;20539;-66
2023/02/20 05:38:05;;;;;;;44.53;25.77;;;;;;;;;;5052453;28;20287;-66
2023/02/20 05:40:31;;;;;;;43.65;24.60;;;;;;;;;;5064816;28;20610;-67
2023/02/20 05:42:56;;;;;;;50.80;26.65;;;;;;;;;;5063794;28;20192;-66
2023/02/20 05:45:22;;;;;;;45.78;26.40;;;;;;;;;;5057185;28;20193;-67
2023/02/20 05:47:47;;;;;;;44.30;24.83;;;;;;;;;;5047780;28;20189;-66
2023/02/20 05:50:12;;;;;;;45.00;24.48;;;;;;;;;;5058702;28;20224;-66
2023/02/20 05:52:38;;;;;;;49.05;25.50;;;;;;;;;;5052581;28;20216;-66
2023/02/20 05:55:03;;;;;;;44.20;24.58;;;;;;;;;;5051774;28;20185;-66
2023/02/20 05:57:29;;;;;;;51.10;25.90;;;;;;;;;;5050925;28;20269;-66
2023/02/20 05:59:54;;;;;;;46.95;25.58;;;;;;;;;;5050001;28;20214;-66
2023/02/20 06:02:19;;;;;;;51.20;26.60;;;;;;;;;;5057674;28;20212;-66
2023/02/20 06:04:45;;;;;;;43.95;26.10;;;;;;;;;;5055787;28;20721;-66
2023/02/20 06:07:10;;;;;;;51.10;25.42;;;;;;;;;;5055033;28;20211;-67
2023/02/20 06:09:36;;;;;;;44.78;25.25;;;;;;;;;;5064356;28;20193;-66
2023/02/20 06:12:01;;;;;;;47.00;25.30;;;;;;;;;;5048814;28;20395;-66
2023/02/20 06:14:26;;;;;;;47.03;25.08;;;;;;;;;;5048611;28;20200;-66
2023/02/20 06:16:52;;;;;;;49.53;26.02;;;;;;;;;;5052832;28;20578;-67
2023/02/20 06:19:23;;;;;;;48.13;25.75;;;;;;;;;;5062930;28;20192;-67
2023/02/20 06:21:52;;;;;;;47.20;25.48;;;;;;;;;;5053637;28;20197;-67
2023/02/20 06:24:17;;;;;;;43.25;24.92;;;;;;;;;;5054296;28;20184;-66
2023/02/20 06:26:43;;;;;;;47.10;24.58;;;;;;;;;;5059585;28;20708;-66
2023/02/20 06:29:09;;;;;;;41.95;25.83;;;;;;;;;;5061063;28;20234;-66
2023/02/20 06:31:35;;;;;;;48.20;24.17;;;;;;;;;;5053880;28;20208;-66
2023/02/20 06:34:00;;;;;;;41.63;23.70;;;;;;;;;;5063873;28;20728;-67
2023/02/20 06:36:29;;;;;;;49.55;24.80;;;;;;;;;;5054530;28;20216;-66
2023/02/20 06:38:54;;;;;;;45.97;25.13;;;;;;;;;;5066045;28;20201;-66
2023/02/20 06:41:20;;;;;;;45.75;23.75;;;;;;;;;;5058697;28;20204;-66
2023/02/20 06:43:45;;;;;;;50.70;23.75;;;;;;;;;;5058415;28;20193;-67
2023/02/20 06:46:10;;;;;;;52.13;23.10;;;;;;;;;;5053148;28;20185;-68
2023/02/20 06:48:44;;;;;;;47.28;24.45;;;;;;;;;;5050521;28;20235;-67
2023/02/20 06:51:09;;;;;;;47.80;23.52;;;;;;;;;;5050422;28;20213;-67
2023/02/20 06:53:37;;;;;;;45.75;23.15;;;;;;;;;;5052486;28;20401;-67
2023/02/20 06:56:06;;;;;;;50.85;23.15;;;;;;;;;;5053620;28;20671;-67
2023/02/20 06:58:31;;;;;;;46.58;23.45;;;;;;;;;;5055390;28;20195;-67
2023/02/20 07:00:58;;;;;;;42.25;22.00;;;;;;;;;;5060072;28;20212;-67
2023/02/20 07:03:23;;;;;;;41.35;22.02;;;;;;;;;;5070670;28;20184;-67
2023/02/20 07:05:49;;;;;;;46.15;20.52;;;;;;;;;;5054072;28;20578;-67
2023/02/20 07:08:14;;;;;;;46.72;22.63;;;;;;;;;;5058428;28;20191;-68
2023/02/20 07:10:40;;;;;;;37.80;21.40;;;;;;;;;;5055728;28;20594;-67
2023/02/20 07:13:05;;;;;;;39.28;20.98;;;;;;;;;;5055879;28;20260;-67
2023/02/20 07:15:30;;;;;;;43.30;21.48;;;;;;;;;;5053016;28;20229;-67
2023/02/20 07:17:56;;;;;;;43.35;20.58;;;;;;;;;;5056630;28;20277;-65
2023/02/20 07:20:21;;;;;;;42.08;22.00;;;;;;;;;;5054000;28;20197;-67
2023/02/20 07:22:51;;;;;;;39.03;20.90;;;;;;;;;;5060278;28;20275;-66
2023/02/20 07:25:16;;;;;;;45.25;22.35;;;;;;;;;;5057636;28;20559;-65
2023/02/20 07:27:41;;;;;;;40.58;20.27;;;;;;;;;;5051730;28;20229;-66
2023/02/20 07:30:07;;;;;;;40.35;21.45;;;;;;;;;;5056041;28;20561;-66
2023/02/20 07:32:33;;;;;;;37.03;20.67;;;;;;;;;;5055074;28;20193;-65
2023/02/20 07:34:58;;;;;;;40.38;20.05;;;;;;;;;;5060945;28;20197;-65
2023/02/20 07:37:23;;;;;;;45.40;20.63;;;;;;;;;;5052786;28;20193;-65
2023/02/20 07:39:49;;;;;;;41.33;19.20;;;;;;;;;;5063393;28;20574;-65
2023/02/20 07:42:16;;;;;;;34.88;18.80;;;;;;;;;;5051724;28;20197;-65
2023/02/20 07:44:43;;;;;;;42.40;18.80;;;;;;;;;;5058279;28;20640;-65
2023/02/20 07:47:08;;;;;;;34.90;18.15;;;;;;;;;;5054662;28;20326;-67
2023/02/20 07:49:34;;;;;;;31.52;18.35;;;;;;;;;;5057082;28;20238;-66
2023/02/20 07:51:59;;;;;;;29.58;17.42;;;;;;;;;;5050773;28;20189;-66
2023/02/20 07:54:26;;;;;;;33.25;16.63;;;;;;;;;;5051184;28;20189;-68
2023/02/20 07:56:52;;;;;;;35.88;17.08;;;;;;;;;;5049285;28;20189;-65
2023/02/20 07:59:18;;;;;;;37.70;17.65;;;;;;;;;;5056884;28;20300;-65
2023/02/20 08:01:43;;;;;;;39.22;16.58;;;;;;;;;;5052284;28;20666;-68
2023/02/20 08:04:08;;;;;;;40.38;16.58;;;;;;;;;;5049043;28;20426;-67
2023/02/20 08:06:34;;;;;;;35.67;16.83;;;;;;;;;;5053150;28;20185;-67
2023/02/20 08:08:59;;;;;;;31.98;15.50;;;;;;;;;;5051954;28;20499;-67
2023/02/20 08:11:25;;;;;;;40.95;15.60;;;;;;;;;;5064308;28;20216;-67
2023/02/20 08:13:54;;;;;;;35.38;14.98;;;;;;;;;;5051570;28;20212;-65
2023/02/20 08:16:20;;;;;;;31.60;15.30;;;;;;;;;;5047233;28;20193;-67
2023/02/20 08:18:45;;;;;;;36.13;14.82;;;;;;;;;;5048114;28;20262;-67
2023/02/20 08:21:10;;;;;;;41.05;14.65;;;;;;;;;;5061621;28;20485;-65
2023/02/20 08:23:36;;;;;;;30.10;15.23;;;;;;;;;;5056139;28;20645;-67
2023/02/20 08:26:03;;;;;;;32.58;14.07;;;;;;;;;;5066769;28;20189;-65
2023/02/20 08:28:29;;;;;;;31.20;13.63;;;;;;;;;;5067992;28;20358;-65
2023/02/20 08:30:54;;;;;;;29.73;13.02;;;;;;;;;;5067151;28;20570;-65
2023/02/20 08:33:20;;;;;;;31.98;13.30;;;;;;;;;;5054417;28;20287;-66
2023/02/20 08:35:47;;;;;;;33.10;13.48;;;;;;;;;;5057838;28;20482;-66
2023/02/20 08:38:30;;;;;;;28.52;11.75;;;;;;;;;;5054810;28;20545;-65
2023/02/20 08:40:56;;;;;;;23.27;12.60;;;;;;;;;;5054315;28;20190;-66
2023/02/20 08:43:22;;;;;;;24.23;11.63;;;;;;;;;;5055801;28;20196;-67
2023/02/20 08:45:48;;;;;;;22.83;10.35;;;;;;;;;;5061592;28;20271;-65
2023/02/20 08:48:14;;;;;;;23.48;10.20;;;;;;;;;;5056287;28;20193;-65
2023/02/20 08:50:39;;;;;;;26.08;11.45;;;;;;;;;;5052127;28;20237;-65
2023/02/20 08:53:04;;;;;;;21.35;11.45;;;;;;;;;;5052888;28;20224;-66
2023/02/20 08:55:30;;;;;;;28.30;10.63;;;;;;;;;;5057197;28;20181;-65
2023/02/20 08:57:55;;;;;;;20.95;10.38;;;;;;;;;;5052435;28;20193;-65
2023/02/20 09:00:21;;;;;;;23.15;10.15;;;;;;;;;;5051450;28;20512;-66
2023/02/20 09:02:47;;;;;;;26.67;10.15;;;;;;;;;;5054999;28;20272;-66
2023/02/20 09:05:16;;;;;;;24.00;9.40;;;;;;;;;;5052849;28;20623;-67
2023/02/20 09:07:41;;;;;;;27.20;10.20;;;;;;;;;;5050291;28;20250;-67
2023/02/20 09:10:08;;;;;;;26.25;10.02;;;;;;;;;;5060665;28;20606;-66
2023/02/20 09:12:33;;;;;;;22.33;9.50;;;;;;;;;;5058024;28;20560;-68
2023/02/20 09:14:59;;;;;;;24.75;9.88;;;;;;;;;;5051096;28;20349;-66
2023/02/20 09:17:26;;;;;;;29.15;10.88;;;;;;;;;;5052698;28;20197;-66
2023/02/20 09:19:51;;;;;;;26.83;10.68;;;;;;;;;;5052591;28;20264;-66
2023/02/20 09:22:24;;;;;;;22.02;9.57;;;;;;;;;;5052882;28;20275;-68
2023/02/20 09:24:50;;;;;;;20.17;9.13;;;;;;;;;;5061736;28;20203;-65
2023/02/20 09:27:15;;;;;;;21.65;9.63;;;;;;;;;;5051731;28;20225;-68
2023/02/20 09:29:42;;;;;;;20.48;9.68;;;;;;;;;;5057367;28;20193;-68
2023/02/20 09:32:08;;;;;;;22.13;9.55;;;;;;;;;;5054277;28;20177;-65
2023/02/20 09:34:33;;;;;;;21.08;9.75;;;;;;;;;;5053209;28;20197;-65
2023/02/20 09:36:59;;;;;;;28.48;10.93;;;;;;;;;;5057095;28;20180;-65
2023/02/20 09:39:24;;;;;;;28.58;9.82;;;;;;;;;;5052954;28;20266;-68
2023/02/20 09:42:17;;;;;;;18.90;9.00;;;;;;;;;;5055663;28;20188;-67
2023/02/20 09:44:49;;;;;;;21.23;8.80;;;;;;;;;;5050320;28;20193;-65
2023/02/20 09:47:40;;;;;;;16.25;8.63;;;;;;;;;;5054034;28;20664;-66
2023/02/20 09:50:14;;;;;;;20.08;8.68;;;;;;;;;;5049273;28;20275;-66
2023/02/20 09:52:43;;;;;;;22.05;9.25;;;;;;;;;;5054047;28;20529;-66
2023/02/20 09:55:18;;;;;;;21.95;8.32;;;;;;;;;;5057045;28;20207;-67
2023/02/20 09:57:48;;;;;;;22.27;9.57;;;;;;;;;;5065422;28;20521;-67
2023/02/20 10:00:27;;;;;;;23.98;9.13;;;;;;;;;;5055570;28;20701;-66
2023/02/20 10:03:13;;;;;;;20.02;8.80;;;;;;;;;;5061274;28;20197;-66
2023/02/20 10:05:42;;;;;;;20.77;8.90;;;;;;;;;;5053962;28;20647;-66
2023/02/20 10:08:10;;;;;;;20.30;8.95;;;;;;;;;;5053286;28;20191;-66
2023/02/20 10:10:37;;;;;;;19.73;9.45;;;;;;;;;;5058783;28;20589;-66
2023/02/20 10:13:40;;;;;;;27.00;9.20;;;;;;;;;;5054536;28;20264;-67
2023/02/20 10:16:10;;;;;;;26.90;8.77;;;;;;;;;;5051024;28;20189;-67
2023/02/20 10:19:09;;;;;;;23.13;9.57;;;;;;;;;;5058354;28;20181;-66
2023/02/20 10:21:53;;;;;;;23.35;10.30;;;;;;;;;;5056384;28;20609;-67
2023/02/20 10:24:21;;;;;;;18.70;9.43;;;;;;;;;;5059474;28;20727;-66
2023/02/20 10:26:52;;;;;;;23.52;9.73;;;;;;;;;;5059772;28;20192;-67
2023/02/20 10:29:23;;;;;;;19.83;9.95;;;;;;;;;;5057042;28;20222;-67
2023/02/20 10:31:59;;;;;;;24.20;10.73;;;;;;;;;;5052228;28;20212;-66
2023/02/20 10:34:28;;;;;;;25.27;10.75;;;;;;;;;;5058185;28;20176;-66
2023/02/20 10:37:07;;;;;;;27.38;10.18;;;;;;;;;;5050583;28;20472;-66
2023/02/20 10:39:34;;;;;;;22.02;9.82;;;;;;;;;;5051447;28;20235;-66
2023/02/20 10:42:09;;;;;;;17.52;10.38;;;;;;;;;;5056029;28;20326;-66
2023/02/20 10:44:52;;;;;;;25.73;10.63;;;;;;;;;;5059116;28;20185;-66
2023/02/20 10:47:41;;;;;;;22.10;9.95;;;;;;;;;;5060735;28;20204;-67
2023/02/20 10:50:21;;;;;;;23.50;10.32;;;;;;;;;;5057961;28;20220;-66
2023/02/20 10:52:53;;;;;;;23.30;9.27;;;;;;;;;;5057871;28;20193;-67
2023/02/20 10:55:32;;;;;;;20.83;10.88;;;;;;;;;;5054152;28;20653;-66
2023/02/20 10:58:13;;;;;;;24.75;10.00;;;;;;;;;;5053915;28;20181;-67
2023/02/20 11:00:44;;;;;;;22.88;9.65;;;;;;;;;;5054612;28;20608;-66
2023/02/20 11:03:16;;;;;;;18.73;10.10;;;;;;;;;;5055100;28;20272;-65
2023/02/20 11:05:50;;;;;;;20.35;9.43;;;;;;;;;;5051498;28;20196;-65
2023/02/20 11:08:19;;;;;;;20.40;9.80;;;;;;;;;;5057518;28;20262;-67
2023/02/20 11:10:47;;;;;;;23.67;10.35;;;;;;;;;;5059478;28;20202;-67
2023/02/20 11:13:16;;;;;;;19.52;9.23;;;;;;;;;;5055956;28;20504;-66
2023/02/20 11:15:43;;;;;;;27.23;10.18;;;;;;;;;;5052738;28;20192;-67
2023/02/20 11:18:32;;;;;;;22.58;9.50;;;;;;;;;;5055585;28;20224;-65
2023/02/20 11:20:57;;;;;;;23.70;9.07;;;;;;;;;;5058987;28;20272;-65
2023/02/20 11:23:41;;;;;;;18.33;9.15;;;;;;;;;;5054103;28;20681;-67
2023/02/20 11:26:19;;;;;;;19.85;9.52;;;;;;;;;;5056132;28;20234;-66
2023/02/20 11:28:45;;;;;;;23.13;10.05;;;;;;;;;;5058355;28;20229;-67
2023/02/20 11:31:11;;;;;;;24.73;9.45;;;;;;;;;;5051980;28;20227;-65
2023/02/20 11:33:46;;;;;;;23.10;9.90;;;;;;;;;;5055084;28;20186;-66
2023/02/20 11:36:16;;;;;;;23.65;10.63;;;;;;;;;;5066405;28;20503;-67
2023/02/20 11:38:42;;;;;;;22.75;9.32;;;;;;;;;;5055324;28;20177;-67
2023/02/20 11:41:20;;;;;;;18.95;9.70;;;;;;;;;;5050696;28;20189;-67
2023/02/20 11:43:47;;;;;;;22.98;9.90;;;;;;;;;;5054654;28;20181;-66
2023/02/20 11:46:22;;;;;;;25.15;10.10;;;;;;;;;;5058881;28;20181;-67
2023/02/20 11:48:56;;;;;;;22.35;9.70;;;;;;;;;;5058745;28;20757;-66
2023/02/20 11:51:31;;;;;;;21.80;10.60;;;;;;;;;;5059911;28;20207;-67
2023/02/20 11:54:28;;;;;;;20.80;10.52;;;;;;;;;;5048354;28;20189;-67
2023/02/20 11:57:15;;;;;;;18.10;9.43;;;;;;;;;;5053179;28;20278;-67
2023/02/20 11:59:47;;;;;;;25.63;10.75;;;;;;;;;;5053490;28;20242;-67
2023/02/20 12:02:18;;;;;;;23.25;10.35;;;;;;;;;;5066686;28;20697;-67
2023/02/20 12:04:59;;;;;;;21.98;10.48;;;;;;;;;;5054432;28;20235;-67
2023/02/20 12:07:41;;;;;;;23.25;10.32;;;;;;;;;;5068171;28;20685;-66
2023/02/20 12:10:24;;;;;;;18.25;9.70;;;;;;;;;;5060020;28;20580;-66
2023/02/20 12:12:50;;;;;;;25.08;11.10;;;;;;;;;;5060657;28;20284;-65
2023/02/20 12:15:18;;;;;;;18.98;9.63;;;;;;;;;;5063013;28;20704;-67
2023/02/20 12:18:02;;;;;;;19.45;10.13;;;;;;;;;;5047811;28;20276;-67
2023/02/20 12:20:29;;;;;;;21.35;9.25;;;;;;;;;;5063453;28;20181;-66
2023/02/20 12:23:17;;;;;;;22.02;10.80;;;;;;;;;;5061433;28;20189;-66
2023/02/20 12:26:11;;;;;;;20.42;10.30;;;;;;;;;;5061742;28;20647;-65
2023/02/20 12:29:14;;;;;;;14.57;9.65;;;;;;;;;;5051039;28;20228;-67
2023/02/20 12:32:02;;;;;;;20.50;9.85;;;;;;;;;;5059136;28;20636;-67
2023/02/20 12:34:53;;;;;;;21.13;10.77;;;;;;;;;;5048136;28;20189;-65
2023/02/20 12:37:24;;;;;;;24.70;11.73;;;;;;;;;;5049972;28;20200;-65
2023/02/20 12:40:21;;;;;;;20.50;11.23;;;;;;;;;;5050777;28;20568;-65
2023/02/20 12:43:14;;;;;;;19.83;11.63;;;;;;;;;;5054438;28;20196;-65
2023/02/20 12:45:55;;;;;;;26.33;12.13;;;;;;;;;;5048231;28;20193;-66
2023/02/20 12:48:33;;;;;;;22.05;12.50;;;;;;;;;;5053456;28;20559;-65
2023/02/20 12:51:33;;;;;;;21.52;12.55;;;;;;;;;;5058577;28;20339;-66
2023/02/20 12:54:12;;;;;;;23.88;12.63;;;;;;;;;;5054560;28;20193;-66
2023/02/20 12:56:52;;;;;;;24.10;13.70;;;;;;;;;;5055751;28;20842;-66
2023/02/20 12:59:29;;;;;;;27.35;14.50;;;;;;;;;;5047076;28;20240;-66
2023/02/20 13:02:00;;;;;;;22.08;14.27;;;;;;;;;;5046651;28;20181;-65
2023/02/20 13:04:35;;;;;;;26.42;14.88;;;;;;;;;;5055476;28;20355;-66
2023/02/20 13:07:18;;;;;;;28.88;15.80;;;;;;;;;;5049601;28;20185;-65
2023/02/20 13:10:00;;;;;;;27.52;15.88;;;;;;;;;;5051719;28;20331;-66
2023/02/20 13:12:26;;;;;;;31.73;17.00;;;;;;;;;;5049749;28;20522;-66
2023/02/20 13:14:56;;;;;;;26.58;16.27;;;;;;;;;;5056658;28;20193;-65
2023/02/20 13:17:51;;;;;;;23.48;16.02;;;;;;;;;;5056379;28;20721;-67
2023/02/20 13:20:29;;;;;;;28.00;17.45;;;;;;;;;;5049233;28;20177;-66
2023/02/20 13:23:24;;;;;;;26.80;17.75;;;;;;;;;;5059428;28;20207;-65
2023/02/20 13:25:51;;;;;;;29.65;17.98;;;;;;;;;;5052483;28;20197;-66
2023/02/20 13:28:21;;;;;;;30.80;16.17;;;;;;;;;;5062311;28;20308;-66
2023/02/20 13:31:13;;;;;;;24.73;16.48;;;;;;;;;;5054584;28;20706;-66
2023/02/20 13:33:43;;;;;;;31.02;17.95;;;;;;;;;;5050059;28;20192;-66
2023/02/20 13:36:25;;;;;;;30.52;17.40;;;;;;;;;;5051410;28;20530;-66
2023/02/20 13:39:22;;;;;;;30.63;18.48;;;;;;;;;;5052305;28;20193;-66
2023/02/20 13:41:57;;;;;;;33.97;18.50;;;;;;;;;;5051166;28;20274;-66
2023/02/20 13:44:34;;;;;;;26.08;17.45;;;;;;;;;;5048392;28;20197;-66
2023/02/20 13:47:10;;;;;;;32.33;18.92;;;;;;;;;;5049213;28;20756;-66
2023/02/20 13:49:47;;;;;;;25.20;18.02;;;;;;;;;;5050474;28;20293;-66
2023/02/20 13:52:28;;;;;;;28.92;19.77;;;;;;;;;;5053206;28;20185;-66
2023/02/20 13:55:16;;;;;;;32.35;18.75;;;;;;;;;;5048917;28;20189;-66
2023/02/20 13:57:48;;;;;;;29.48;19.70;;;;;;;;;;5046979;28;20181;-66
2023/02/20 14:00:39;;;;;;;34.47;19.58;;;;;;;;;;5050144;28;20223;-66
2023/02/20 14:03:19;;;;;;;29.75;18.83;;;;;;;;;;5053934;28;20189;-66
2023/02/20 14:05:45;;;;;;;28.42;18.85;;;;;;;;;;5053845;28;20256;-66
2023/02/20 14:08:19;;;;;;;29.85;19.35;;;;;;;;;;5047977;28;20717;-66
2023/02/20 14:10:46;;;;;;;26.52;18.33;;;;;;;;;;5048134;28;20254;-66
2023/02/20 14:13:18;;;;;;;29.73;20.50;;;;;;;;;;5050387;28;20225;-66
2023/02/20 14:15:51;;;;;;;28.02;19.75;;;;;;;;;;5056608;28;20185;-65
2023/02/20 14:18:20;;;;;;;27.35;18.50;;;;;;;;;;5053290;28;20235;-67
2023/02/20 14:20:47;;;;;;;28.83;19.45;;;;;;;;;;5046500;28;20212;-66
2023/02/20 14:23:27;;;;;;;28.35;20.10;;;;;;;;;;5051788;28;20632;-66
2023/02/20 14:26:01;;;;;;;27.00;19.98;;;;;;;;;;5051414;28;20668;-66
2023/02/20 14:28:29;;;;;;;27.83;18.65;;;;;;;;;;5049360;28;20213;-66
2023/02/20 14:31:04;;;;;;;26.83;19.27;;;;;;;;;;5058669;28;20537;-67
2023/02/20 14:33:32;;;;;;;28.05;19.55;;;;;;;;;;5051456;28;20500;-66
2023/02/20 14:36:09;;;;;;;29.50;19.20;;;;;;;;;;5050303;28;20189;-66
2023/02/20 14:38:48;;;;;;;26.95;20.08;;;;;;;;;;5052296;28;20243;-67
2023/02/20 14:41:18;;;;;;;28.42;20.17;;;;;;;;;;5055856;28;20613;-66
2023/02/20 14:43:52;;;;;;;28.30;20.20;;;;;;;;;;5055797;28;20311;-67
2023/02/20 14:46:29;;;;;;;29.42;20.75;;;;;;;;;;5059125;28;20197;-66
2023/02/20 14:49:15;;;;;;;28.60;20.88;;;;;;;;;;5053019;28;20193;-67
2023/02/20 14:51:41;;;;;;;31.50;20.70;;;;;;;;;;5055438;28;20214;-67
2023/02/20 14:54:18;;;;;;;28.67;21.42;;;;;;;;;;5055427;28;20192;-66
2023/02/20 14:56:45;;;;;;;31.77;21.27;;;;;;;;;;5052944;28;20262;-66
2023/02/20 14:59:32;;;;;;;34.17;20.38;;;;;;;;;;5050322;28;20845;-66
2023/02/20 15:02:14;;;;;;;30.15;19.90;;;;;;;;;;5055641;28;20193;-66
2023/02/20 15:04:48;;;;;;;29.92;19.80;;;;;;;;;;5054937;28;20272;-67